createdAt,value
2023-02-11T00:00:40.097Z,1029.89
2023-02-11T00:01:40.766Z,1029.93
2023-02-11T00:02:39.836Z,1029.89
2023-02-11T00:03:40.828Z,1029.81
2023-02-11T00:04:39.799Z,1029.83
2023-02-11T00:05:40.832Z,1029.80
2023-02-11T00:06:39.781Z,1029.76
2023-02-11T00:07:40.019Z,1029.76
2023-02-11T00:08:39.763Z,1029.75
2023-02-11T00:09:40.411Z,1029.79
2023-02-11T00:10:39.741Z,1029.80
2023-02-11T00:11:39.740Z,1029.80
2023-02-11T00:12:44.307Z,1029.87
2023-02-11T00:13:40.461Z,1029.93
2023-02-11T00:14:43.344Z,1030.03
2023-02-11T00:15:39.665Z,1030.02
2023-02-11T00:16:39.683Z,1030.00
2023-02-11T00:17:43.317Z,1030.07
2023-02-11T00:18:39.637Z,1030.11
2023-02-11T00:19:39.615Z,1030.09
2023-02-11T00:20:39.604Z,1030.15
2023-02-11T00:21:39.599Z,1030.12
2023-02-11T00:22:39.582Z,1030.14
2023-02-11T00:23:39.595Z,1030.13
2023-02-11T00:24:39.553Z,1030.08
2023-02-11T00:25:39.537Z,1030.02
2023-02-11T00:26:39.544Z,1030.08
2023-02-11T00:27:39.507Z,1030.20
2023-02-11T00:28:40.171Z,1030.07
2023-02-11T00:29:39.515Z,1030.08
2023-02-11T00:30:39.585Z,1030.08
2023-02-11T00:31:43.435Z,1030.07
2023-02-11T00:32:39.700Z,1030.05
2023-02-11T00:33:39.424Z,1029.97
2023-02-11T00:34:39.423Z,1029.96
2023-02-11T00:35:39.429Z,1029.99
2023-02-11T00:36:39.395Z,1029.89
2023-02-11T00:37:39.387Z,1029.86
2023-02-11T00:38:39.383Z,1029.82
2023-02-11T00:39:39.364Z,1029.80
2023-02-11T00:40:39.355Z,1029.86
2023-02-11T00:41:40.527Z,1029.87
2023-02-11T00:42:40.274Z,1029.89
2023-02-11T00:43:40.268Z,1029.91
2023-02-11T00:44:39.297Z,1029.85
2023-02-11T00:45:39.294Z,1029.93
2023-02-11T00:46:39.401Z,1029.93
2023-02-11T00:47:40.239Z,1029.93
2023-02-11T00:48:39.249Z,1029.92
2023-02-11T00:49:39.305Z,1029.99
2023-02-11T00:50:39.262Z,1029.93
2023-02-11T00:51:39.214Z,1029.99
2023-02-11T00:52:39.479Z,1030.02
2023-02-11T00:53:39.256Z,1029.96
2023-02-11T00:54:39.165Z,1030.06
2023-02-11T00:55:40.130Z,1030.09
2023-02-11T00:56:39.407Z,1030.14
2023-02-11T00:57:40.098Z,1030.08
2023-02-11T00:58:40.068Z,1030.09
2023-02-11T00:59:40.848Z,1030.06
2023-02-11T01:00:39.100Z,1029.99
2023-02-11T01:01:39.133Z,1030.08
2023-02-11T01:02:39.069Z,1030.06
2023-02-11T01:03:39.050Z,1030.00
2023-02-11T01:04:39.049Z,1030.06
2023-02-11T01:05:39.092Z,1030.02
2023-02-11T01:06:39.025Z,1030.07
2023-02-11T01:07:39.026Z,1029.96
2023-02-11T01:08:39.261Z,1029.85
2023-02-11T01:09:38.974Z,1029.88
2023-02-11T01:10:38.995Z,1029.90
2023-02-11T01:11:38.998Z,1029.84
2023-02-11T01:12:38.955Z,1029.73
2023-02-11T01:13:38.949Z,1029.66
2023-02-11T01:14:38.926Z,1029.61
2023-02-11T01:15:38.935Z,1029.57
2023-02-11T01:16:38.899Z,1029.51
2023-02-11T01:17:38.898Z,1029.60
2023-02-11T01:18:38.870Z,1029.70
2023-02-11T01:19:38.859Z,1029.71
2023-02-11T01:20:38.851Z,1029.61
2023-02-11T01:21:39.788Z,1029.72
2023-02-11T01:22:38.820Z,1029.72
2023-02-11T01:23:38.840Z,1029.72
2023-02-11T01:24:39.062Z,1029.59
2023-02-11T01:25:38.792Z,1029.56
2023-02-11T01:26:39.738Z,1029.49
2023-02-11T01:27:38.762Z,1029.52
2023-02-11T01:28:38.830Z,1029.48
2023-02-11T01:29:39.736Z,1029.54
2023-02-11T01:30:38.734Z,1029.57
2023-02-11T01:31:38.818Z,1029.61
2023-02-11T01:32:38.705Z,1029.58
2023-02-11T01:33:38.696Z,1029.62
2023-02-11T01:34:38.940Z,1029.58
2023-02-11T01:35:38.684Z,1029.72
2023-02-11T01:36:38.662Z,1029.72
2023-02-11T01:37:38.644Z,1029.69
2023-02-11T01:38:38.624Z,1029.54
2023-02-11T01:39:38.631Z,1029.63
2023-02-11T01:40:38.595Z,1029.75
2023-02-11T01:41:38.616Z,1029.77
2023-02-11T01:42:38.586Z,1029.72
2023-02-11T01:43:38.569Z,1029.65
2023-02-11T01:44:38.561Z,1029.60
2023-02-11T01:45:39.248Z,1029.55
2023-02-11T01:46:38.584Z,1029.64
2023-02-11T01:47:38.540Z,1029.59
2023-02-11T01:48:38.511Z,1029.63
2023-02-11T01:49:38.492Z,1029.57
2023-02-11T01:50:38.751Z,1029.63
2023-02-11T01:51:38.458Z,1029.69
2023-02-11T01:52:39.414Z,1029.54
2023-02-11T01:53:38.470Z,1029.56
2023-02-11T01:54:38.450Z,1029.47
2023-02-11T01:55:38.422Z,1029.54
2023-02-11T01:56:39.361Z,1029.42
2023-02-11T01:57:38.381Z,1029.49
2023-02-11T01:58:39.338Z,1029.53
2023-02-11T01:59:38.394Z,1029.52
2023-02-11T02:00:38.376Z,1029.50
2023-02-11T02:01:38.362Z,1029.51
2023-02-11T02:02:38.332Z,1029.46
2023-02-11T02:03:38.359Z,1029.47
2023-02-11T02:04:38.314Z,1029.56
2023-02-11T02:05:38.574Z,1029.55
2023-02-11T02:06:38.289Z,1029.42
2023-02-11T02:07:38.270Z,1029.50
2023-02-11T02:08:38.254Z,1029.51
2023-02-11T02:09:38.226Z,1029.44
2023-02-11T02:10:38.215Z,1029.45
2023-02-11T02:11:38.234Z,1029.42
2023-02-11T02:12:38.920Z,1029.45
2023-02-11T02:13:38.440Z,1029.44
2023-02-11T02:14:38.174Z,1029.35
2023-02-11T02:15:38.163Z,1029.36
2023-02-11T02:16:38.431Z,1029.29
2023-02-11T02:17:38.894Z,1029.28
2023-02-11T02:18:38.123Z,1029.31
2023-02-11T02:19:38.360Z,1029.37
2023-02-11T02:20:38.102Z,1029.37
2023-02-11T02:21:38.078Z,1029.37
2023-02-11T02:22:38.067Z,1029.39
2023-02-11T02:23:38.238Z,1029.39
2023-02-11T02:24:38.054Z,1029.34
2023-02-11T02:25:38.031Z,1029.34
2023-02-11T02:26:38.274Z,1029.31
2023-02-11T02:27:37.998Z,1029.31
2023-02-11T02:28:38.012Z,1029.29
2023-02-11T02:29:38.014Z,1029.33
2023-02-11T02:30:38.009Z,1029.33
2023-02-11T02:31:38.829Z,1029.35
2023-02-11T02:32:38.284Z,1029.30
2023-02-11T02:33:37.938Z,1029.39
2023-02-11T02:34:37.928Z,1029.33
2023-02-11T02:35:38.880Z,1029.33
2023-02-11T02:36:38.849Z,1029.42
2023-02-11T02:37:37.879Z,1029.30
2023-02-11T02:38:38.106Z,1029.31
2023-02-11T02:39:38.833Z,1029.32
2023-02-11T02:40:37.861Z,1029.33
2023-02-11T02:41:39.610Z,1029.31
2023-02-11T02:42:37.829Z,1029.29
2023-02-11T02:43:37.840Z,1029.28
2023-02-11T02:44:37.809Z,1029.26
2023-02-11T02:45:37.781Z,1029.16
2023-02-11T02:46:37.808Z,1029.22
2023-02-11T02:47:40.560Z,1029.22
2023-02-11T02:48:38.011Z,1029.21
2023-02-11T02:49:37.749Z,1029.22
2023-02-11T02:50:37.732Z,1029.20
2023-02-11T02:51:37.735Z,1029.30
2023-02-11T02:52:37.709Z,1029.27
2023-02-11T02:53:37.704Z,1029.26
2023-02-11T02:54:37.693Z,1029.33
2023-02-11T02:55:37.674Z,1029.32
2023-02-11T02:56:37.658Z,1029.29
2023-02-11T02:57:37.656Z,1029.24
2023-02-11T02:58:37.645Z,1029.26
2023-02-11T02:59:37.635Z,1029.25
2023-02-11T03:00:41.521Z,1029.26
2023-02-11T03:01:37.594Z,1029.31
2023-02-11T03:02:37.592Z,1029.24
2023-02-11T03:03:37.591Z,1029.27
2023-02-11T03:04:37.553Z,1029.23
2023-02-11T03:05:37.568Z,1029.22
2023-02-11T03:06:37.532Z,1029.15
2023-02-11T03:07:37.520Z,1029.11
2023-02-11T03:08:38.479Z,1029.11
2023-02-11T03:09:38.471Z,1029.15
2023-02-11T03:10:37.495Z,1029.14
2023-02-11T03:11:38.456Z,1029.21
2023-02-11T03:12:37.474Z,1029.19
2023-02-11T03:13:38.199Z,1029.20
2023-02-11T03:14:37.441Z,1029.21
2023-02-11T03:15:37.431Z,1029.21
2023-02-11T03:16:37.509Z,1029.18
2023-02-11T03:17:37.414Z,1029.17
2023-02-11T03:18:37.392Z,1029.15
2023-02-11T03:19:37.380Z,1029.10
2023-02-11T03:20:37.360Z,1028.99
2023-02-11T03:21:37.344Z,1028.90
2023-02-11T03:22:37.374Z,1029.06
2023-02-11T03:23:37.650Z,1029.09
2023-02-11T03:24:37.313Z,1029.07
2023-02-11T03:25:37.304Z,1029.09
2023-02-11T03:26:37.284Z,1029.18
2023-02-11T03:27:37.265Z,1029.15
2023-02-11T03:28:37.256Z,1029.09
2023-02-11T03:29:37.289Z,1029.13
2023-02-11T03:30:37.240Z,1029.02
2023-02-11T03:31:37.337Z,1029.11
2023-02-11T03:32:37.206Z,1029.15
2023-02-11T03:33:38.138Z,1029.18
2023-02-11T03:34:37.853Z,1029.12
2023-02-11T03:35:37.205Z,1029.22
2023-02-11T03:36:37.163Z,1029.19
2023-02-11T03:37:37.157Z,1029.15
2023-02-11T03:38:37.126Z,1029.12
2023-02-11T03:39:37.379Z,1029.25
2023-02-11T03:40:38.074Z,1029.25
2023-02-11T03:41:37.145Z,1029.20
2023-02-11T03:42:40.783Z,1029.21
2023-02-11T03:43:38.320Z,1029.16
2023-02-11T03:44:40.849Z,1029.21
2023-02-11T03:45:38.021Z,1029.20
2023-02-11T03:46:37.030Z,1029.25
2023-02-11T03:47:39.661Z,1029.18
2023-02-11T03:48:37.000Z,1029.19
2023-02-11T03:49:36.992Z,1029.24
2023-02-11T03:50:37.232Z,1029.23
2023-02-11T03:51:36.978Z,1029.27
2023-02-11T03:52:36.943Z,1029.24
2023-02-11T03:53:36.956Z,1029.29
2023-02-11T03:54:37.193Z,1029.28
2023-02-11T03:55:36.921Z,1029.25
2023-02-11T03:56:36.893Z,1029.28
2023-02-11T03:57:36.896Z,1029.29
2023-02-11T03:58:36.863Z,1029.40
2023-02-11T03:59:36.875Z,1029.34
2023-02-11T04:00:36.846Z,1029.38
2023-02-11T04:01:36.837Z,1029.46
2023-02-11T04:02:36.846Z,1029.39
2023-02-11T04:03:36.808Z,1029.38
2023-02-11T04:04:36.808Z,1029.37
2023-02-11T04:05:36.820Z,1029.35
2023-02-11T04:06:36.777Z,1029.34
2023-02-11T04:07:36.755Z,1029.25
2023-02-11T04:08:36.749Z,1029.25
2023-02-11T04:09:36.747Z,1029.29
2023-02-11T04:10:36.727Z,1029.38
2023-02-11T04:11:36.752Z,1029.36
2023-02-11T04:12:36.707Z,1029.36
2023-02-11T04:13:36.960Z,1029.34
2023-02-11T04:14:36.679Z,1029.36
2023-02-11T04:15:36.681Z,1029.37
2023-02-11T04:16:36.952Z,1029.35
2023-02-11T04:17:36.669Z,1029.33
2023-02-11T04:18:36.871Z,1029.32
2023-02-11T04:19:36.620Z,1029.28
2023-02-11T04:20:36.592Z,1029.26
2023-02-11T04:21:37.529Z,1029.17
2023-02-11T04:22:36.612Z,1029.17
2023-02-11T04:23:36.588Z,1029.12
2023-02-11T04:24:36.553Z,1029.20
2023-02-11T04:25:36.548Z,1029.20
2023-02-11T04:26:36.519Z,1029.18
2023-02-11T04:27:36.782Z,1029.14
2023-02-11T04:28:36.616Z,1029.14
2023-02-11T04:29:36.754Z,1029.26
2023-02-11T04:30:36.480Z,1029.16
2023-02-11T04:31:36.468Z,1029.22
2023-02-11T04:32:36.434Z,1029.18
2023-02-11T04:33:36.424Z,1029.26
2023-02-11T04:34:36.410Z,1029.27
2023-02-11T04:35:36.440Z,1029.27
2023-02-11T04:36:36.378Z,1029.18
2023-02-11T04:37:36.376Z,1029.20
2023-02-11T04:38:36.384Z,1029.20
2023-02-11T04:39:36.346Z,1029.25
2023-02-11T04:40:36.337Z,1029.21
2023-02-11T04:41:36.347Z,1029.27
2023-02-11T04:42:36.330Z,1029.32
2023-02-11T04:43:36.298Z,1029.25
2023-02-11T04:44:36.298Z,1029.37
2023-02-11T04:45:36.588Z,1029.34
2023-02-11T04:46:36.258Z,1029.30
2023-02-11T04:47:36.269Z,1029.28
2023-02-11T04:48:36.256Z,1029.37
2023-02-11T04:49:36.222Z,1029.33
2023-02-11T04:50:36.217Z,1029.32
2023-02-11T04:51:36.200Z,1029.34
2023-02-11T04:52:36.193Z,1029.27
2023-02-11T04:53:36.190Z,1029.33
2023-02-11T04:54:36.162Z,1029.25
2023-02-11T04:55:36.142Z,1029.31
2023-02-11T04:56:36.151Z,1029.20
2023-02-11T04:57:36.123Z,1029.27
2023-02-11T04:58:36.603Z,1029.25
2023-02-11T04:59:36.777Z,1029.18
2023-02-11T05:00:36.091Z,1029.27
2023-02-11T05:01:36.127Z,1029.26
2023-02-11T05:02:36.052Z,1029.29
2023-02-11T05:03:36.032Z,1029.29
2023-02-11T05:04:36.041Z,1029.27
2023-02-11T05:05:36.033Z,1029.27
2023-02-11T05:06:36.265Z,1029.15
2023-02-11T05:07:36.005Z,1029.36
2023-02-11T05:08:35.987Z,1029.31
2023-02-11T05:09:37.654Z,1029.29
2023-02-11T05:10:35.944Z,1029.29
2023-02-11T05:11:36.240Z,1029.17
2023-02-11T05:12:35.951Z,1029.29
2023-02-11T05:13:35.927Z,1029.24
2023-02-11T05:14:35.896Z,1029.27
2023-02-11T05:15:35.896Z,1029.23
2023-02-11T05:16:35.899Z,1029.22
2023-02-11T05:17:36.153Z,1029.23
2023-02-11T05:18:35.847Z,1029.18
2023-02-11T05:19:36.797Z,1029.33
2023-02-11T05:20:35.817Z,1029.33
2023-02-11T05:21:35.825Z,1029.34
2023-02-11T05:22:35.798Z,1029.23
2023-02-11T05:23:35.798Z,1029.27
2023-02-11T05:24:35.778Z,1029.35
2023-02-11T05:25:35.771Z,1029.25
2023-02-11T05:26:35.758Z,1029.29
2023-02-11T05:27:35.748Z,1029.25
2023-02-11T05:28:35.812Z,1029.34
2023-02-11T05:29:36.011Z,1029.40
2023-02-11T05:30:35.784Z,1029.37
2023-02-11T05:31:36.639Z,1029.29
2023-02-11T05:32:35.669Z,1029.32
2023-02-11T05:33:35.684Z,1029.36
2023-02-11T05:34:36.615Z,1029.28
2023-02-11T05:35:35.655Z,1029.29
2023-02-11T05:36:36.582Z,1029.28
2023-02-11T05:37:35.676Z,1029.24
2023-02-11T05:38:36.544Z,1029.28
2023-02-11T05:39:35.582Z,1029.23
2023-02-11T05:40:35.580Z,1029.26
2023-02-11T05:41:36.535Z,1029.26
2023-02-11T05:42:35.554Z,1029.19
2023-02-11T05:43:35.525Z,1029.24
2023-02-11T05:44:35.541Z,1029.37
2023-02-11T05:45:36.474Z,1029.24
2023-02-11T05:46:35.588Z,1029.21
2023-02-11T05:47:35.516Z,1029.20
2023-02-11T05:48:35.481Z,1029.19
2023-02-11T05:49:35.461Z,1029.14
2023-02-11T05:50:35.446Z,1029.17
2023-02-11T05:51:35.426Z,1029.18
2023-02-11T05:52:35.425Z,1029.17
2023-02-11T05:53:36.386Z,1029.10
2023-02-11T05:54:36.348Z,1029.26
2023-02-11T05:55:35.377Z,1029.17
2023-02-11T05:56:36.317Z,1029.26
2023-02-11T05:57:35.355Z,1029.16
2023-02-11T05:58:35.338Z,1029.24
2023-02-11T05:59:36.577Z,1029.21
2023-02-11T06:00:35.330Z,1029.19
2023-02-11T06:01:36.273Z,1029.21
2023-02-11T06:02:35.343Z,1029.20
2023-02-11T06:03:35.296Z,1029.19
2023-02-11T06:04:35.271Z,1029.18
2023-02-11T06:05:35.279Z,1029.16
2023-02-11T06:06:35.243Z,1029.22
2023-02-11T06:07:36.195Z,1029.20
2023-02-11T06:08:37.026Z,1029.19
2023-02-11T06:09:35.190Z,1029.26
2023-02-11T06:10:35.184Z,1029.24
2023-02-11T06:11:35.198Z,1029.25
2023-02-11T06:12:36.121Z,1029.27
2023-02-11T06:13:35.867Z,1029.26
2023-02-11T06:14:35.168Z,1029.28
2023-02-11T06:15:36.125Z,1029.25
2023-02-11T06:16:36.069Z,1029.26
2023-02-11T06:17:35.117Z,1029.23
2023-02-11T06:18:35.082Z,1029.26
2023-02-11T06:19:36.019Z,1029.26
2023-02-11T06:20:36.003Z,1029.35
2023-02-11T06:21:43.373Z,1029.26
2023-02-11T06:22:37.156Z,1029.26
2023-02-11T06:23:35.019Z,1029.27
2023-02-11T06:24:58.687Z,1029.23
2023-02-11T06:25:35.999Z,1029.25
2023-02-11T06:26:34.996Z,1029.20
2023-02-11T06:27:34.973Z,1029.17
2023-02-11T06:28:35.103Z,1029.26
2023-02-11T06:29:36.137Z,1029.30
2023-02-11T06:30:35.893Z,1029.22
2023-02-11T06:31:35.037Z,1029.21
2023-02-11T06:32:43.832Z,1029.23
2023-02-11T06:33:36.891Z,1029.19
2023-02-11T06:34:34.872Z,1029.33
2023-02-11T06:35:36.078Z,1029.31
2023-02-11T06:36:34.878Z,1029.23
2023-02-11T06:37:34.854Z,1029.23
2023-02-11T06:38:34.852Z,1029.23
2023-02-11T06:39:34.840Z,1029.19
2023-02-11T06:40:35.765Z,1029.14
2023-02-11T06:41:34.792Z,1029.24
2023-02-11T06:42:34.773Z,1029.21
2023-02-11T06:43:34.761Z,1029.23
2023-02-11T06:44:34.750Z,1029.21
2023-02-11T06:45:34.764Z,1029.16
2023-02-11T06:46:35.658Z,1029.27
2023-02-11T06:47:34.734Z,1029.21
2023-02-11T06:48:35.036Z,1029.32
2023-02-11T06:49:34.693Z,1029.30
2023-02-11T06:50:34.686Z,1029.29
2023-02-11T06:51:35.961Z,1029.31
2023-02-11T06:52:34.644Z,1029.26
2023-02-11T06:53:34.626Z,1029.33
2023-02-11T06:54:34.864Z,1029.36
2023-02-11T06:55:34.608Z,1029.34
2023-02-11T06:56:34.588Z,1029.38
2023-02-11T06:57:34.614Z,1029.31
2023-02-11T06:58:34.584Z,1029.33
2023-02-11T06:59:34.824Z,1029.34
2023-02-11T07:00:34.536Z,1029.29
2023-02-11T07:01:34.605Z,1029.33
2023-02-11T07:02:34.545Z,1029.28
2023-02-11T07:03:34.578Z,1029.33
2023-02-11T07:04:34.502Z,1029.27
2023-02-11T07:05:34.800Z,1029.29
2023-02-11T07:06:34.477Z,1029.28
2023-02-11T07:07:34.549Z,1029.24
2023-02-11T07:08:34.430Z,1029.29
2023-02-11T07:09:34.439Z,1029.24
2023-02-11T07:10:34.414Z,1029.17
2023-02-11T07:11:34.409Z,1029.16
2023-02-11T07:12:35.589Z,1029.19
2023-02-11T07:13:34.393Z,1029.16
2023-02-11T07:14:35.310Z,1029.23
2023-02-11T07:15:34.360Z,1029.18
2023-02-11T07:16:34.443Z,1029.23
2023-02-11T07:17:34.342Z,1029.21
2023-02-11T07:18:34.339Z,1029.17
2023-02-11T07:19:34.292Z,1029.26
2023-02-11T07:20:34.290Z,1029.22
2023-02-11T07:21:34.302Z,1029.24
2023-02-11T07:22:34.264Z,1029.18
2023-02-11T07:23:34.248Z,1029.16
2023-02-11T07:24:34.251Z,1029.16
2023-02-11T07:25:35.082Z,1029.23
2023-02-11T07:26:34.208Z,1029.20
2023-02-11T07:27:34.220Z,1029.19
2023-02-11T07:28:35.426Z,1029.25
2023-02-11T07:29:34.168Z,1029.24
2023-02-11T07:30:34.415Z,1029.27
2023-02-11T07:31:34.258Z,1029.27
2023-02-11T07:32:34.141Z,1029.34
2023-02-11T07:33:34.156Z,1029.33
2023-02-11T07:34:35.114Z,1029.37
2023-02-11T07:35:34.098Z,1029.36
2023-02-11T07:36:34.090Z,1029.41
2023-02-11T07:37:34.067Z,1029.35
2023-02-11T07:38:34.799Z,1029.37
2023-02-11T07:39:34.077Z,1029.36
2023-02-11T07:40:34.040Z,1029.32
2023-02-11T07:41:36.685Z,1029.45
2023-02-11T07:42:34.007Z,1029.46
2023-02-11T07:43:34.001Z,1029.46
2023-02-11T07:44:35.099Z,1029.55
2023-02-11T07:45:34.012Z,1029.53
2023-02-11T07:46:34.965Z,1029.54
2023-02-11T07:47:33.958Z,1029.58
2023-02-11T07:48:34.924Z,1029.61
2023-02-11T07:49:33.909Z,1029.67
2023-02-11T07:50:33.919Z,1029.64
2023-02-11T07:51:33.920Z,1029.56
2023-02-11T07:52:34.139Z,1029.56
2023-02-11T07:53:33.861Z,1029.49
2023-02-11T07:54:33.890Z,1029.58
2023-02-11T07:55:33.846Z,1029.54
2023-02-11T07:56:33.830Z,1029.49
2023-02-11T07:57:33.841Z,1029.45
2023-02-11T07:58:33.833Z,1029.56
2023-02-11T07:59:33.787Z,1029.56
2023-02-11T08:00:35.022Z,1029.55
2023-02-11T08:01:33.774Z,1029.48
2023-02-11T08:02:33.783Z,1029.43
2023-02-11T08:03:33.758Z,1029.55
2023-02-11T08:04:34.672Z,1029.49
2023-02-11T08:05:34.467Z,1029.50
2023-02-11T08:06:33.694Z,1029.50
2023-02-11T08:07:33.689Z,1029.50
2023-02-11T08:08:33.684Z,1029.52
2023-02-11T08:09:34.658Z,1029.60
2023-02-11T08:10:33.665Z,1029.55
2023-02-11T08:11:33.645Z,1029.59
2023-02-11T08:12:33.625Z,1029.66
2023-02-11T08:13:33.615Z,1029.62
2023-02-11T08:14:33.600Z,1029.71
2023-02-11T08:15:33.606Z,1029.65
2023-02-11T08:16:33.666Z,1029.57
2023-02-11T08:17:33.573Z,1029.67
2023-02-11T08:18:33.544Z,1029.65
2023-02-11T08:19:35.328Z,1029.65
2023-02-11T08:20:33.524Z,1029.62
2023-02-11T08:21:33.804Z,1029.60
2023-02-11T08:22:33.504Z,1029.61
2023-02-11T08:23:33.497Z,1029.61
2023-02-11T08:24:33.462Z,1029.60
2023-02-11T08:25:33.455Z,1029.52
2023-02-11T08:26:33.446Z,1029.60
2023-02-11T08:27:33.454Z,1029.67
2023-02-11T08:28:34.362Z,1029.65
2023-02-11T08:29:33.405Z,1029.64
2023-02-11T08:30:33.385Z,1029.59
2023-02-11T08:31:33.476Z,1029.60
2023-02-11T08:32:33.366Z,1029.61
2023-02-11T08:33:33.387Z,1029.52
2023-02-11T08:34:33.336Z,1029.48
2023-02-11T08:35:33.577Z,1029.58
2023-02-11T08:36:33.547Z,1029.54
2023-02-11T08:37:33.291Z,1029.47
2023-02-11T08:38:34.237Z,1029.53
2023-02-11T08:39:34.240Z,1029.66
2023-02-11T08:40:33.257Z,1029.52
2023-02-11T08:41:33.497Z,1029.60
2023-02-11T08:42:33.231Z,1029.59
2023-02-11T08:43:33.222Z,1029.61
2023-02-11T08:44:33.463Z,1029.59
2023-02-11T08:45:33.264Z,1029.62
2023-02-11T08:46:33.211Z,1029.67
2023-02-11T08:47:33.185Z,1029.64
2023-02-11T08:48:33.173Z,1029.64
2023-02-11T08:49:33.143Z,1029.72
2023-02-11T08:50:33.122Z,1029.68
2023-02-11T08:51:34.082Z,1029.67
2023-02-11T08:52:34.292Z,1029.66
2023-02-11T08:53:33.354Z,1029.72
2023-02-11T08:54:35.050Z,1029.73
2023-02-11T08:55:33.075Z,1029.71
2023-02-11T08:56:33.064Z,1029.76
2023-02-11T08:57:33.316Z,1029.80
2023-02-11T08:58:33.026Z,1029.93
2023-02-11T08:59:33.016Z,1029.83
2023-02-11T09:00:33.003Z,1029.91
2023-02-11T09:01:33.051Z,1029.86
2023-02-11T09:02:33.096Z,1029.91
2023-02-11T09:03:33.386Z,1029.90
2023-02-11T09:04:33.201Z,1029.95
2023-02-11T09:05:32.933Z,1029.95
2023-02-11T09:06:32.919Z,1029.84
2023-02-11T09:07:32.904Z,1029.84
2023-02-11T09:08:32.897Z,1029.86
2023-02-11T09:09:32.917Z,1029.95
2023-02-11T09:10:32.876Z,1029.91
2023-02-11T09:11:32.878Z,1029.92
2023-02-11T09:12:33.107Z,1029.92
2023-02-11T09:13:32.820Z,1030.02
2023-02-11T09:14:32.824Z,1030.00
2023-02-11T09:15:32.811Z,1030.04
2023-02-11T09:16:36.644Z,1030.15
2023-02-11T09:17:32.786Z,1030.08
2023-02-11T09:18:32.777Z,1030.03
2023-02-11T09:19:32.767Z,1030.08
2023-02-11T09:20:32.741Z,1030.04
2023-02-11T09:21:33.004Z,1030.00
2023-02-11T09:22:33.662Z,1030.08
2023-02-11T09:23:32.713Z,1030.02
2023-02-11T09:24:32.693Z,1030.09
2023-02-11T09:25:32.673Z,1030.09
2023-02-11T09:27:47.623Z,1030.12
2023-02-11T09:28:47.103Z,1030.15
2023-02-11T09:29:48.637Z,1030.14
2023-02-11T09:30:50.078Z,1030.18
2023-02-11T09:31:46.040Z,1030.22
2023-02-11T09:32:45.940Z,1030.23
2023-02-11T09:33:46.140Z,1030.21
2023-02-11T09:34:45.868Z,1030.21
2023-02-11T09:35:46.801Z,1030.24
2023-02-11T09:36:45.867Z,1030.26
2023-02-11T09:37:45.841Z,1030.21
2023-02-11T09:38:46.015Z,1030.25
2023-02-11T09:39:46.778Z,1030.16
2023-02-11T09:40:49.678Z,1030.24
2023-02-11T09:41:48.124Z,1030.16
2023-02-11T09:42:45.765Z,1030.22
2023-02-11T09:43:45.747Z,1030.23
2023-02-11T09:44:46.042Z,1030.23
2023-02-11T09:45:46.733Z,1030.27
2023-02-11T09:46:45.734Z,1030.25
2023-02-11T09:47:45.725Z,1030.25
2023-02-11T09:48:47.398Z,1030.35
2023-02-11T09:49:46.649Z,1030.35
2023-02-11T09:50:46.606Z,1030.43
2023-02-11T09:51:45.910Z,1030.37
2023-02-11T09:52:45.646Z,1030.43
2023-02-11T09:53:46.929Z,1030.53
2023-02-11T09:54:46.568Z,1030.45
2023-02-11T09:55:46.561Z,1030.58
2023-02-11T09:56:45.862Z,1030.54
2023-02-11T09:57:45.603Z,1030.61
2023-02-11T09:58:45.871Z,1030.63
2023-02-11T09:59:46.501Z,1030.61
2023-02-11T10:00:47.202Z,1030.66
2023-02-11T10:01:45.793Z,1030.65
2023-02-11T10:02:45.552Z,1030.71
2023-02-11T10:03:45.515Z,1030.73
2023-02-11T10:04:46.149Z,1030.72
2023-02-11T10:05:45.498Z,1030.67
2023-02-11T10:06:50.268Z,1030.70
2023-02-11T10:07:45.444Z,1030.71
2023-02-11T10:08:49.296Z,1030.73
2023-02-11T10:09:47.165Z,1030.75
2023-02-11T10:10:45.424Z,1030.76
2023-02-11T10:11:46.356Z,1030.77
2023-02-11T10:12:45.384Z,1030.77
2023-02-11T10:13:45.388Z,1030.82
2023-02-11T10:14:45.430Z,1030.86
2023-02-11T10:15:45.389Z,1030.92
2023-02-11T10:16:45.341Z,1030.91
2023-02-11T10:17:45.340Z,1030.92
2023-02-11T10:18:46.288Z,1030.94
2023-02-11T10:19:46.029Z,1030.94
2023-02-11T10:20:45.300Z,1030.97
2023-02-11T10:21:45.514Z,1030.99
2023-02-11T10:22:46.172Z,1031.05
2023-02-11T10:23:45.499Z,1031.08
2023-02-11T10:24:46.205Z,1031.13
2023-02-11T10:25:45.590Z,1031.06
2023-02-11T10:26:45.248Z,1031.18
2023-02-11T10:27:45.193Z,1031.11
2023-02-11T10:28:45.243Z,1031.07
2023-02-11T10:29:46.771Z,1031.11
2023-02-11T10:30:45.214Z,1031.11
2023-02-11T10:31:45.177Z,1031.18
2023-02-11T10:32:45.450Z,1031.13
2023-02-11T10:33:45.112Z,1031.14
2023-02-11T10:34:45.106Z,1031.14
2023-02-11T10:35:45.093Z,1031.15
2023-02-11T10:36:45.088Z,1031.22
2023-02-11T10:37:45.086Z,1031.17
2023-02-11T10:38:45.096Z,1031.17
2023-02-11T10:39:45.045Z,1031.12
2023-02-11T10:40:48.981Z,1031.20
2023-02-11T10:41:45.058Z,1031.19
2023-02-11T10:42:45.002Z,1031.09
2023-02-11T10:43:45.006Z,1031.14
2023-02-11T10:44:45.065Z,1031.15
2023-02-11T10:45:44.956Z,1031.15
2023-02-11T10:46:45.004Z,1031.13
2023-02-11T10:47:44.937Z,1031.14
2023-02-11T10:48:45.876Z,1031.08
2023-02-11T10:49:44.907Z,1031.00
2023-02-11T10:50:44.929Z,1031.03
2023-02-11T10:51:44.896Z,1031.13
2023-02-11T10:52:44.876Z,1031.10
2023-02-11T10:53:44.859Z,1031.03
2023-02-11T10:54:44.849Z,1031.09
2023-02-11T10:55:44.840Z,1030.99
2023-02-11T10:56:44.838Z,1031.07
2023-02-11T10:57:44.814Z,1031.11
2023-02-11T10:58:45.756Z,1031.09
2023-02-11T10:59:44.780Z,1031.05
2023-02-11T11:00:44.771Z,1031.04
2023-02-11T11:01:44.799Z,1031.09
2023-02-11T11:02:44.782Z,1030.99
2023-02-11T11:03:44.732Z,1030.97
2023-02-11T11:04:44.919Z,1030.96
2023-02-11T11:05:44.721Z,1030.94
2023-02-11T11:06:44.755Z,1030.90
2023-02-11T11:07:44.673Z,1030.96
2023-02-11T11:08:44.692Z,1030.91
2023-02-11T11:09:44.662Z,1030.95
2023-02-11T11:10:44.633Z,1030.93
2023-02-11T11:11:44.892Z,1030.92
2023-02-11T11:12:44.626Z,1030.99
2023-02-11T11:13:45.575Z,1030.84
2023-02-11T11:14:44.885Z,1030.87
2023-02-11T11:15:44.585Z,1030.89
2023-02-11T11:16:44.576Z,1030.97
2023-02-11T11:17:44.562Z,1030.91
2023-02-11T11:18:44.547Z,1030.89
2023-02-11T11:19:44.562Z,1030.95
2023-02-11T11:20:44.558Z,1030.95
2023-02-11T11:21:45.736Z,1030.99
2023-02-11T11:22:44.507Z,1031.03
2023-02-11T11:23:44.479Z,1031.02
2023-02-11T11:24:44.468Z,1031.07
2023-02-11T11:25:44.467Z,1031.05
2023-02-11T11:26:44.477Z,1031.08
2023-02-11T11:27:44.433Z,1031.02
2023-02-11T11:28:45.844Z,1030.95
2023-02-11T11:29:44.423Z,1030.99
2023-02-11T11:30:44.675Z,1031.01
2023-02-11T11:31:44.416Z,1030.99
2023-02-11T11:32:44.399Z,1031.01
2023-02-11T11:33:44.369Z,1030.97
2023-02-11T11:34:44.350Z,1030.96
2023-02-11T11:35:45.282Z,1031.05
2023-02-11T11:36:44.568Z,1030.99
2023-02-11T11:37:44.313Z,1031.05
2023-02-11T11:38:44.320Z,1031.00
2023-02-11T11:39:44.296Z,1031.00
2023-02-11T11:40:44.280Z,1031.05
2023-02-11T11:41:44.258Z,1031.05
2023-02-11T11:42:44.262Z,1031.06
2023-02-11T11:43:44.481Z,1031.03
2023-02-11T11:44:45.189Z,1031.03
2023-02-11T11:45:44.217Z,1031.02
2023-02-11T11:46:44.271Z,1030.99
2023-02-11T11:47:44.450Z,1031.05
2023-02-11T11:48:46.836Z,1030.99
2023-02-11T11:49:44.161Z,1031.03
2023-02-11T11:50:44.173Z,1031.08
2023-02-11T11:51:44.123Z,1031.06
2023-02-11T11:52:44.123Z,1031.03
2023-02-11T11:53:44.100Z,1031.08
2023-02-11T11:54:44.090Z,1031.02
2023-02-11T11:55:45.069Z,1030.99
2023-02-11T11:56:44.092Z,1030.90
2023-02-11T11:57:44.074Z,1030.92
2023-02-11T11:58:44.051Z,1030.93
2023-02-11T11:59:44.026Z,1030.88
2023-02-11T12:00:44.021Z,1030.82
2023-02-11T12:01:44.099Z,1030.81
2023-02-11T12:02:47.902Z,1030.70
2023-02-11T12:03:44.233Z,1030.65
2023-02-11T12:04:43.963Z,1030.64
2023-02-11T12:05:43.956Z,1030.65
2023-02-11T12:06:43.953Z,1030.64